createdAt,value
2019-05-10T00:01:57.147Z,99558.57
2019-05-10T00:04:44.195Z,99549.28
2019-05-10T00:07:31.627Z,99552.41
2019-05-10T00:10:00.389Z,99556.91
2019-05-10T00:12:31.562Z,99564.41
2019-05-10T00:15:01.062Z,99564.20
2019-05-10T00:17:30.667Z,99567.17
2019-05-10T00:20:00.151Z,99566.97
2019-05-10T00:22:31.407Z,99565.38
2019-05-10T00:25:04.586Z,99569.52
2019-05-10T00:27:32.091Z,99563.56
2019-05-10T00:30:01.639Z,99571.25
2019-05-10T00:32:31.102Z,99573.02
2019-05-10T00:35:00.645Z,99571.04
2019-05-10T00:37:30.178Z,99570.05
2019-05-10T00:39:59.799Z,99571.78
2019-05-10T00:42:29.253Z,99568.45
2019-05-10T00:44:58.737Z,99562.92
2019-05-10T00:47:28.312Z,99566.85
2019-05-10T00:49:57.762Z,99569.62
2019-05-10T00:52:27.252Z,99565.27
2019-05-10T00:54:56.715Z,99566.05
2019-05-10T00:57:26.204Z,99565.05
2019-05-10T00:59:55.699Z,99571.14
2019-05-10T01:02:25.171Z,99575.08
2019-05-10T01:04:54.669Z,99567.39
2019-05-10T01:07:24.186Z,99571.53
2019-05-10T01:09:53.647Z,99574.30
2019-05-10T01:12:23.125Z,99573.27
2019-05-10T01:14:52.653Z,99578.22
2019-05-10T01:17:22.128Z,99585.70
2019-05-10T01:19:51.659Z,99575.81
2019-05-10T01:22:21.219Z,99579.17
2019-05-10T01:24:50.688Z,99583.11
2019-05-10T01:27:20.241Z,99576.20
2019-05-10T01:29:49.776Z,99583.67
2019-05-10T01:32:19.202Z,99587.04
2019-05-10T01:34:48.699Z,99595.33
2019-05-10T01:37:18.178Z,99593.95
2019-05-10T01:39:47.637Z,99595.11
2019-05-10T01:42:17.108Z,99605.00
2019-05-10T01:44:46.596Z,99600.86
2019-05-10T01:47:16.062Z,99600.04
2019-05-10T01:49:45.543Z,99598.66
2019-05-10T01:52:15.004Z,99608.93
2019-05-10T01:54:44.485Z,99611.69
2019-05-10T01:57:14.022Z,99609.50
2019-05-10T01:59:43.498Z,99610.88
2019-05-10T02:02:12.968Z,99612.86
2019-05-10T02:04:42.518Z,99612.65
2019-05-10T02:07:12.856Z,99618.17
2019-05-10T02:09:42.321Z,99618.17
2019-05-10T02:12:11.857Z,99620.72
2019-05-10T02:14:41.349Z,99616.58
2019-05-10T02:17:10.818Z,99618.91
2019-05-10T02:19:40.332Z,99624.05
2019-05-10T02:22:09.825Z,99621.89
2019-05-10T02:24:39.311Z,99628.80
2019-05-10T02:27:28.217Z,99625.43
2019-05-10T02:29:57.707Z,99625.81
2019-05-10T02:32:27.963Z,99625.81
2019-05-10T02:34:57.443Z,99623.05
2019-05-10T02:37:26.951Z,99626.39
2019-05-10T02:39:56.408Z,99629.75
2019-05-10T02:42:25.872Z,99626.39
2019-05-10T02:44:55.428Z,99625.61
2019-05-10T02:47:24.898Z,99629.75
2019-05-10T02:49:54.396Z,99622.02
2019-05-10T02:52:23.855Z,99635.06
2019-05-10T02:54:53.773Z,99634.45
2019-05-10T02:57:23.602Z,99631.70
2019-05-10T02:59:53.823Z,99634.81
2019-05-10T03:02:24.561Z,99630.67
2019-05-10T03:04:55.393Z,99636.19
2019-05-10T03:07:26.694Z,99636.80
2019-05-10T03:09:56.255Z,99632.65
2019-05-10T03:12:27.398Z,99637.58
2019-05-10T03:14:59.001Z,99638.95
2019-05-10T03:17:48.194Z,99640.34
2019-05-10T03:20:17.742Z,99640.34
2019-05-10T03:22:47.696Z,99641.72
2019-05-10T03:25:17.343Z,99646.81
2019-05-10T03:27:46.930Z,99647.41
2019-05-10T03:30:16.499Z,99648.80
2019-05-10T03:32:46.127Z,99654.10
2019-05-10T03:35:15.621Z,99657.86
2019-05-10T03:37:47.088Z,99658.46
2019-05-10T03:40:16.843Z,99660.41
2019-05-10T03:42:46.408Z,99660.20
2019-05-10T03:45:16.205Z,99659.84
2019-05-10T03:47:45.689Z,99668.70
2019-05-10T03:50:15.966Z,99674.22
2019-05-10T03:52:45.403Z,99675.61
2019-05-10T03:55:14.879Z,99681.52
2019-05-10T03:57:44.366Z,99679.31
2019-05-10T04:00:14.588Z,99678.88
2019-05-10T04:02:44.228Z,99679.84
2019-05-10T04:05:14.200Z,99682.98
2019-05-10T04:07:43.710Z,99685.84
2019-05-10T04:10:32.515Z,99686.23
2019-05-10T04:13:02.075Z,99693.27
2019-05-10T04:15:31.598Z,99691.67
2019-05-10T04:18:01.087Z,99695.16
2019-05-10T04:20:30.646Z,99697.70
2019-05-10T04:23:00.154Z,99700.25
2019-05-10T04:25:29.652Z,99702.80
2019-05-10T04:27:59.165Z,99706.72
2019-05-10T04:30:31.705Z,99710.08
2019-05-10T04:32:59.900Z,99707.89
2019-05-10T04:35:29.415Z,99717.55
2019-05-10T04:37:58.876Z,99714.79
2019-05-10T04:40:28.386Z,99714.00
2019-05-10T04:42:57.859Z,99725.62
2019-05-10T04:45:27.344Z,99724.02
2019-05-10T04:47:56.834Z,99726.22
2019-05-10T04:50:26.335Z,99732.09
2019-05-10T04:52:55.804Z,99734.84
2019-05-10T04:55:25.306Z,99743.35
2019-05-10T04:57:54.756Z,99741.75
2019-05-10T05:00:24.318Z,99740.38
2019-05-10T05:02:53.802Z,99748.87
2019-05-10T05:05:23.344Z,99753.23
2019-05-10T05:07:52.839Z,99753.23
2019-05-10T05:10:22.320Z,99760.36
2019-05-10T05:12:51.821Z,99759.19
2019-05-10T05:15:21.280Z,99761.95
2019-05-10T05:17:50.809Z,99755.05
2019-05-10T05:20:20.311Z,99769.08
2019-05-10T05:22:49.807Z,99769.89
2019-05-10T05:25:22.037Z,99774.81
2019-05-10T05:28:06.427Z,99776.20
2019-05-10T05:30:22.070Z,99771.27
2019-05-10T05:32:51.558Z,99773.81
2019-05-10T05:35:21.104Z,99775.98
2019-05-10T05:37:50.612Z,99784.27
2019-05-10T05:40:20.211Z,99783.27
2019-05-10T05:42:49.802Z,99782.66
2019-05-10T05:45:19.391Z,99788.19
2019-05-10T05:47:48.840Z,99793.36
2019-05-10T05:50:18.469Z,99787.03
2019-05-10T05:52:48.012Z,99790.22
2019-05-10T05:55:17.590Z,99788.28
2019-05-10T05:57:47.079Z,99790.88
2019-05-10T06:00:17.150Z,99800.98
2019-05-10T06:02:46.851Z,99805.00
2019-05-10T06:05:32.300Z,99809.92
2019-05-10T06:07:51.615Z,99806.25
2019-05-10T06:10:19.792Z,99805.30
2019-05-10T06:12:50.574Z,99807.72
2019-05-10T06:15:23.001Z,99810.10
2019-05-10T06:17:57.206Z,99811.70
2019-05-10T06:20:22.885Z,99813.52
2019-05-10T06:23:06.039Z,99820.86
2019-05-10T06:25:37.981Z,99822.24
2019-05-10T06:27:54.874Z,99830.97
2019-05-10T06:30:24.422Z,99827.07
2019-05-10T06:33:00.297Z,99834.20
2019-05-10T06:35:25.267Z,99841.67
2019-05-10T06:37:54.807Z,99842.48
2019-05-10T06:40:32.619Z,99839.72
2019-05-10T06:42:55.504Z,99847.41
2019-05-10T06:45:25.067Z,99852.00
2019-05-10T06:47:54.546Z,99853.59
2019-05-10T06:50:30.016Z,99857.95
2019-05-10T06:53:00.514Z,99862.10
2019-05-10T06:55:26.593Z,99859.94
2019-05-10T06:58:00.487Z,99867.79
2019-05-10T07:00:27.621Z,99870.33
2019-05-10T07:02:57.228Z,99869.95
2019-05-10T07:05:26.849Z,99874.92
2019-05-10T07:08:00.609Z,99882.05
2019-05-10T07:10:27.523Z,99880.06
2019-05-10T07:13:03.793Z,99886.03
2019-05-10T07:15:28.372Z,99885.68
2019-05-10T07:17:57.822Z,99897.95
2019-05-10T07:20:29.468Z,99897.02
2019-05-10T07:22:59.911Z,99897.45
2019-05-10T07:25:29.787Z,99905.39
2019-05-10T07:27:59.282Z,99905.83
2019-05-10T07:30:41.536Z,99907.87
2019-05-10T07:33:10.059Z,99911.86
2019-05-10T07:35:39.561Z,99914.48
2019-05-10T07:38:09.211Z,99917.47
2019-05-10T07:40:38.681Z,99916.66
2019-05-10T07:43:08.249Z,99925.55
2019-05-10T07:45:37.814Z,99925.33
2019-05-10T07:48:08.725Z,99930.86
2019-05-10T07:50:42.641Z,99934.19
2019-05-10T07:53:09.902Z,99930.86
2019-05-10T07:55:39.438Z,99940.53
2019-05-10T07:58:09.015Z,99940.53
2019-05-10T08:00:44.620Z,99944.67
2019-05-10T08:03:16.115Z,99951.58
2019-05-10T08:05:40.901Z,99946.63
2019-05-10T08:08:10.379Z,99964.24
2019-05-10T08:10:39.848Z,99960.31
2019-05-10T08:13:09.411Z,99964.69
2019-05-10T08:15:38.898Z,99969.64
2019-05-10T08:18:09.831Z,99974.58
2019-05-10T08:20:49.246Z,99974.58
2019-05-10T08:23:12.876Z,99981.27
2019-05-10T08:25:46.910Z,99977.72
2019-05-10T08:28:13.165Z,99975.73
2019-05-10T08:30:51.748Z,99981.27
2019-05-10T08:33:16.816Z,99980.70
2019-05-10T08:35:46.858Z,99987.83
2019-05-10T08:38:17.653Z,99998.30
2019-05-10T08:40:47.168Z,99990.59
2019-05-10T08:43:17.169Z,99998.73
2019-05-10T08:45:49.514Z,100002.38
2019-05-10T08:48:17.954Z,100008.00
2019-05-10T08:50:54.315Z,100003.91
2019-05-10T08:53:18.789Z,100014.12
2019-05-10T08:55:48.306Z,100012.80
2019-05-10T08:58:23.089Z,100013.70
2019-05-10T09:00:54.688Z,100021.27
2019-05-10T09:03:22.578Z,100031.83
2019-05-10T09:05:52.525Z,100032.48
2019-05-10T09:08:27.718Z,100041.44
2019-05-10T09:10:53.470Z,100029.50
2019-05-10T09:13:23.055Z,100043.32
2019-05-10T09:15:56.888Z,100046.39
2019-05-10T09:18:23.954Z,100051.77
2019-05-10T09:20:54.585Z,100053.23
2019-05-10T09:23:24.722Z,100053.55
2019-05-10T09:25:54.274Z,100054.77
2019-05-10T09:28:23.878Z,100059.35
2019-05-10T09:31:00.490Z,100072.46
2019-05-10T09:33:24.588Z,100072.46
2019-05-10T09:35:55.034Z,100076.32
2019-05-10T09:38:28.652Z,100082.51
2019-05-10T09:40:56.469Z,100089.52
2019-05-10T09:43:26.157Z,100092.16
2019-05-10T09:45:55.697Z,100098.37
2019-05-10T09:48:25.227Z,100096.05
2019-05-10T09:50:56.364Z,100103.40
2019-05-10T09:53:29.438Z,100104.06
2019-05-10T09:56:02.497Z,100103.84
2019-05-10T09:58:28.723Z,100105.44
2019-05-10T10:01:13.774Z,100102.67
2019-05-10T10:03:30.268Z,100108.77
2019-05-10T10:06:07.287Z,100111.70
2019-05-10T10:08:31.995Z,100111.27
2019-05-10T10:11:13.515Z,100113.38
2019-05-10T10:13:39.829Z,100126.53
2019-05-10T10:16:10.181Z,100127.23
2019-05-10T10:18:37.192Z,100126.36
2019-05-10T10:21:07.380Z,100123.97
2019-05-10T10:23:37.789Z,100130.67
2019-05-10T10:26:07.430Z,100127.09
2019-05-10T10:28:39.518Z,100131.45
2019-05-10T10:31:08.548Z,100141.14
2019-05-10T10:33:38.130Z,100143.69
2019-05-10T10:36:10.483Z,100144.86
2019-05-10T10:38:45.491Z,100141.30
2019-05-10T10:41:10.056Z,100146.02
2019-05-10T10:43:39.577Z,100146.17
2019-05-10T10:46:12.447Z,100142.16
2019-05-10T10:48:43.655Z,100143.70
2019-05-10T10:51:11.556Z,100144.48
2019-05-10T10:53:41.032Z,100140.33
2019-05-10T10:56:10.557Z,100142.37
2019-05-10T10:58:40.051Z,100135.77
2019-05-10T11:01:20.210Z,100136.27
2019-05-10T11:03:41.071Z,100142.80
2019-05-10T11:06:10.652Z,100142.95
2019-05-10T11:08:41.267Z,100141.58
2019-05-10T11:11:10.941Z,100139.60
2019-05-10T11:13:44.827Z,100139.23
2019-05-10T11:16:15.537Z,100143.39
2019-05-10T11:18:42.833Z,100146.64
2019-05-10T11:21:12.317Z,100144.61
2019-05-10T11:23:42.166Z,100144.47
2019-05-10T11:26:11.670Z,100142.56
2019-05-10T11:28:44.251Z,100142.78
2019-05-10T11:31:12.411Z,100144.82
2019-05-10T11:33:47.122Z,100141.61
2019-05-10T11:36:13.173Z,100151.88
2019-05-10T11:38:46.956Z,100151.45
2019-05-10T11:41:21.161Z,100147.89
2019-05-10T11:43:45.080Z,100150.88
2019-05-10T11:46:14.542Z,100151.75
2019-05-10T11:48:44.033Z,100147.28
2019-05-10T11:51:17.384Z,100157.11
2019-05-10T11:53:48.860Z,100162.78
2019-05-10T11:56:16.054Z,100162.34
2019-05-10T11:58:52.605Z,100154.50
2019-05-10T12:01:19.493Z,100156.01
2019-05-10T12:03:48.094Z,100155.72
2019-05-10T12:06:17.594Z,100155.45
2019-05-10T12:08:47.175Z,100161.11
2019-05-10T12:11:29.386Z,100160.05
2019-05-10T12:13:47.878Z,100160.80
2019-05-10T12:16:17.909Z,100157.56
2019-05-10T12:19:02.406Z,100158.31
2019-05-10T12:21:21.541Z,100151.05
2019-05-10T12:23:51.907Z,100154.95
2019-05-10T12:28:52.454Z,100146.02
2019-05-10T12:31:23.295Z,100146.92
2019-05-10T12:33:53.212Z,100144.45
2019-05-10T12:36:27.331Z,100148.59
2019-05-10T12:38:56.108Z,100143.30
2019-05-10T12:41:25.233Z,100140.73
2019-05-10T12:44:02.840Z,100136.57
2019-05-10T12:46:25.928Z,100146.54
2019-05-10T12:48:55.396Z,100141.73
2019-05-10T12:51:36.919Z,100148.11
2019-05-10T12:54:06.478Z,100138.72
2019-05-10T12:56:44.026Z,100138.45
2019-05-10T12:59:07.263Z,100144.31
2019-05-10T13:01:36.845Z,100144.56
2019-05-10T13:04:13.434Z,100139.80
2019-05-10T13:06:37.608Z,100138.07
2019-05-10T13:09:08.220Z,100134.70
2019-05-10T13:11:37.794Z,100128.55
2019-05-10T13:14:09.535Z,100125.43
2019-05-10T13:16:38.554Z,100126.23
2019-05-10T13:19:08.040Z,100127.25
2019-05-10T13:21:37.538Z,100127.05
2019-05-10T13:24:07.021Z,100127.45
2019-05-10T13:26:36.617Z,100127.69
2019-05-10T13:29:08.046Z,100123.53
2019-05-10T13:31:42.249Z,100127.73
2019-05-10T13:34:08.863Z,100130.95
2019-05-10T13:36:39.077Z,100138.78
2019-05-10T13:39:08.967Z,100141.78
2019-05-10T13:41:38.444Z,100140.39
2019-05-10T13:44:07.942Z,100137.23
2019-05-10T13:46:37.451Z,100136.89
2019-05-10T13:49:06.921Z,100134.30
2019-05-10T13:51:36.453Z,100127.75
2019-05-10T13:54:05.995Z,100129.34
2019-05-10T13:56:35.500Z,100134.52
2019-05-10T13:59:15.850Z,100137.71
2019-05-10T14:01:36.277Z,100131.52
2019-05-10T14:04:05.840Z,100135.50
2019-05-10T14:06:35.306Z,100133.28
2019-05-10T14:09:24.265Z,100140.47
2019-05-10T14:11:53.758Z,100132.91
2019-05-10T14:14:26.567Z,100126.50
2019-05-10T14:16:54.477Z,100131.87
2019-05-10T14:19:25.581Z,100129.67
2019-05-10T14:21:56.326Z,100135.45
2019-05-10T14:24:27.120Z,100134.87
2019-05-10T14:26:57.684Z,100142.69
2019-05-10T14:29:34.370Z,100133.47
2019-05-10T14:31:59.133Z,100131.89
2019-05-10T14:34:28.637Z,100131.69
2019-05-10T14:36:58.127Z,100127.70
2019-05-10T14:39:27.692Z,100132.52
2019-05-10T14:41:57.254Z,100133.30
2019-05-10T14:44:27.012Z,100129.50
2019-05-10T14:46:56.652Z,100131.09
2019-05-10T14:49:26.121Z,100136.88
2019-05-10T14:51:59.366Z,100140.68
2019-05-10T14:54:41.536Z,100138.87
2019-05-10T14:56:58.045Z,100139.28
2019-05-10T14:59:27.599Z,100140.91
2019-05-10T15:01:57.176Z,100135.91
2019-05-10T15:04:44.550Z,100141.89
2019-05-10T15:06:57.878Z,100143.30
2019-05-10T15:09:27.358Z,100148.09
2019-05-10T15:11:56.899Z,100150.86
2019-05-10T15:14:26.428Z,100153.67
2019-05-10T15:16:55.964Z,100146.28
2019-05-10T15:19:27.373Z,100146.09
2019-05-10T15:21:56.742Z,100145.69
2019-05-10T15:24:26.254Z,100147.88
2019-05-10T15:26:55.714Z,100146.28
2019-05-10T15:29:25.341Z,100133.28
2019-05-10T15:31:54.783Z,100131.28
2019-05-10T15:34:24.312Z,100131.09
2019-05-10T15:36:53.801Z,100129.67
2019-05-10T15:39:28.613Z,100126.72
2019-05-10T15:41:59.082Z,100122.53
2019-05-10T15:44:31.229Z,100122.31
2019-05-10T15:46:56.988Z,100126.11
2019-05-10T15:49:26.499Z,100127.31
2019-05-10T15:52:07.515Z,100122.92
2019-05-10T15:54:27.257Z,100123.31
2019-05-10T15:56:56.805Z,100124.48
2019-05-10T15:59:26.310Z,100121.69
2019-05-10T16:01:55.852Z,100124.33
2019-05-10T16:04:25.440Z,100125.91
2019-05-10T16:06:54.976Z,100124.33
2019-05-10T16:09:24.737Z,100122.11
2019-05-10T16:11:56.197Z,100125.91
2019-05-10T16:14:25.452Z,100122.52
2019-05-10T16:16:55.040Z,100123.30
2019-05-10T16:19:24.551Z,100106.28
2019-05-10T16:21:54.675Z,100109.63
2019-05-10T16:24:27.727Z,100115.22
2019-05-10T16:27:00.149Z,100127.44
2019-05-10T16:29:27.809Z,100136.07
2019-05-10T16:31:57.377Z,100135.06
2019-05-10T16:34:32.257Z,100119.34
2019-05-10T16:36:58.187Z,100125.13
2019-05-10T16:39:27.745Z,100131.53
2019-05-10T16:41:57.237Z,100166.02
2019-05-10T16:44:26.701Z,100183.49
2019-05-10T16:46:56.203Z,100185.42
2019-05-10T16:49:25.841Z,100170.92
2019-05-10T16:51:55.365Z,100158.52
2019-05-10T16:54:27.230Z,100151.45
2019-05-10T16:57:01.092Z,100148.27
2019-05-10T16:59:29.830Z,100138.61
2019-05-10T17:02:04.488Z,100145.09
2019-05-10T17:04:32.004Z,100151.94
2019-05-10T17:07:01.294Z,100143.30
2019-05-10T17:09:30.808Z,100136.02
2019-05-10T17:12:00.305Z,100141.98
2019-05-10T17:14:29.783Z,100133.33
2019-05-10T17:17:00.138Z,100137.49
2019-05-10T17:19:34.178Z,100141.42
2019-05-10T17:22:01.061Z,100128.68
2019-05-10T17:24:30.585Z,100124.33
2019-05-10T17:27:00.115Z,100131.89
2019-05-10T17:29:29.621Z,100125.91
2019-05-10T17:31:59.153Z,100124.64
2019-05-10T17:34:29.641Z,100122.86
2019-05-10T17:36:59.836Z,100115.66
2019-05-10T17:39:32.153Z,100117.45
2019-05-10T17:42:03.120Z,100111.50
2019-05-10T17:44:32.050Z,100126.47
2019-05-10T17:47:01.532Z,100128.33
2019-05-10T17:49:31.010Z,100130.30
2019-05-10T17:52:00.664Z,100134.25
2019-05-10T17:54:33.896Z,100138.19
2019-05-10T17:57:01.399Z,100137.94
2019-05-10T17:59:33.613Z,100147.12
2019-05-10T18:02:03.152Z,100147.62
2019-05-10T18:04:32.690Z,100151.89
2019-05-10T18:07:02.182Z,100149.75
2019-05-10T18:09:31.680Z,100140.22
2019-05-10T18:12:01.266Z,100144.53
2019-05-10T18:14:30.772Z,100147.52
2019-05-10T18:17:00.253Z,100148.81
2019-05-10T18:19:29.769Z,100148.68
2019-05-10T18:22:02.633Z,100164.17
2019-05-10T18:24:36.283Z,100171.33
2019-05-10T18:27:01.915Z,100172.32
2019-05-10T18:29:31.493Z,100175.80
2019-05-10T18:32:01.039Z,100188.16
2019-05-10T18:34:33.082Z,100182.64
2019-05-10T18:37:01.767Z,100189.66
2019-05-10T18:39:31.293Z,100181.80
2019-05-10T18:42:00.805Z,100195.84
2019-05-10T18:44:30.333Z,100197.23
2019-05-10T18:46:59.817Z,100199.41
2019-05-10T18:49:29.394Z,100194.45
2019-05-10T18:52:04.556Z,100190.04
2019-05-10T18:54:30.220Z,100194.39
2019-05-10T18:57:04.641Z,100193.36
2019-05-10T18:59:30.997Z,100201.88
2019-05-10T19:02:00.459Z,100195.26
2019-05-10T19:04:29.976Z,100194.45
2019-05-10T19:07:09.284Z,100193.61
2019-05-10T19:09:30.775Z,100188.44
2019-05-10T19:12:00.282Z,100189.74
2019-05-10T19:14:30.033Z,100185.58
2019-05-10T19:17:04.024Z,100181.34
2019-05-10T19:19:35.338Z,100184.50
2019-05-10T19:22:08.998Z,100184.67
2019-05-10T19:24:35.037Z,100184.08
2019-05-10T19:27:07.348Z,100197.93
2019-05-10T19:29:38.856Z,100202.50
2019-05-10T19:32:11.634Z,100195.67
2019-05-10T19:34:38.240Z,100195.38
2019-05-10T19:37:07.836Z,100201.95
2019-05-10T19:39:37.334Z,100202.70
2019-05-10T19:42:06.953Z,100211.94
2019-05-10T19:44:40.589Z,100207.38
2019-05-10T19:47:11.170Z,100215.45
2019-05-10T19:49:39.194Z,100213.87
2019-05-10T19:52:08.828Z,100219.38
2019-05-10T19:54:38.384Z,100225.75
2019-05-10T19:57:15.100Z,100233.68
2019-05-10T19:59:44.105Z,100226.23
2019-05-10T20:02:10.539Z,100218.98
2019-05-10T20:04:40.007Z,100219.45
2019-05-10T20:07:09.483Z,100228.20
2019-05-10T20:09:39.076Z,100237.18
2019-05-10T20:12:08.638Z,100235.12
2019-05-10T20:14:38.196Z,100236.04
2019-05-10T20:17:07.820Z,100239.49
2019-05-10T20:19:37.353Z,100243.17
2019-05-10T20:22:06.821Z,100230.86
2019-05-10T20:24:36.414Z,100215.83
2019-05-10T20:27:06.777Z,100212.02
2019-05-10T20:29:36.226Z,100202.50
2019-05-10T20:32:06.032Z,100207.33
2019-05-10T20:34:35.539Z,100210.52
2019-05-10T20:37:05.296Z,100229.14
2019-05-10T20:39:34.866Z,100244.22
2019-05-10T20:42:04.461Z,100260.86
2019-05-10T20:44:33.979Z,100258.23
2019-05-10T20:47:03.504Z,100239.03
2019-05-10T20:49:32.979Z,100235.48
2019-05-10T20:52:02.640Z,100221.80
2019-05-10T20:54:32.353Z,100234.20
2019-05-10T20:57:02.036Z,100240.08
2019-05-10T20:59:31.599Z,100230.77
2019-05-10T21:02:01.100Z,100226.39
2019-05-10T21:04:30.692Z,100223.41
2019-05-10T21:07:00.175Z,100214.68
2019-05-10T21:09:29.659Z,100221.34
2019-05-10T21:11:59.169Z,100215.38
2019-05-10T21:14:28.842Z,100213.41
2019-05-10T21:16:58.326Z,100214.09
2019-05-10T21:19:27.910Z,100213.30
2019-05-10T21:21:59.879Z,100202.05
2019-05-10T21:24:29.359Z,100200.67
2019-05-10T21:26:59.011Z,100196.53
2019-05-10T21:29:28.507Z,100199.52
2019-05-10T21:31:58.002Z,100195.16
2019-05-10T21:34:27.590Z,100199.30
2019-05-10T21:36:57.099Z,100202.84
2019-05-10T21:39:26.644Z,100201.69
2019-05-10T21:41:56.189Z,100197.22
2019-05-10T21:44:25.778Z,100192.86
2019-05-10T21:46:55.277Z,100184.23
2019-05-10T21:49:24.743Z,100172.64
2019-05-10T21:51:54.227Z,100171.49
2019-05-10T21:54:23.745Z,100161.02
2019-05-10T21:56:53.355Z,100165.98
2019-05-10T21:59:22.837Z,100160.80
2019-05-10T22:01:52.392Z,100158.63
2019-05-10T22:04:22.042Z,100166.90
2019-05-10T22:06:51.581Z,100165.52
2019-05-10T22:09:21.123Z,100163.55
2019-05-10T22:11:50.752Z,100157.58
2019-05-10T22:14:20.261Z,100150.13
2019-05-10T22:16:49.777Z,100144.39
2019-05-10T22:19:19.256Z,100155.41
2019-05-10T22:21:48.848Z,100158.17
2019-05-10T22:24:18.422Z,100150.13
2019-05-10T22:26:47.918Z,100146.00
2019-05-10T22:29:17.419Z,100148.98
2019-05-10T22:31:46.901Z,100147.23
2019-05-10T22:34:16.479Z,100148.28
2019-05-10T22:36:45.951Z,100154.84
2019-05-10T22:39:15.422Z,100146.22
2019-05-10T22:41:44.932Z,100156.32
2019-05-10T22:44:14.404Z,100160.69
2019-05-10T22:46:43.884Z,100140.47
2019-05-10T22:49:13.356Z,100135.41
2019-05-10T22:51:43.294Z,100140.36
2019-05-10T22:54:12.911Z,100137.02
2019-05-10T22:57:01.753Z,100134.25
2019-05-10T22:59:31.260Z,100142.20
2019-05-10T23:02:00.784Z,100137.47
2019-05-10T23:04:30.327Z,100136.55
2019-05-10T23:06:59.789Z,100126.33
2019-05-10T23:09:29.299Z,100127.94
2019-05-10T23:11:58.803Z,100120.69
2019-05-10T23:14:47.703Z,100123.44
2019-05-10T23:17:17.266Z,100122.65
2019-05-10T23:19:46.787Z,100123.44
2019-05-10T23:22:16.246Z,100111.63
2019-05-10T23:24:45.724Z,100111.26
2019-05-10T23:27:15.307Z,100122.74
2019-05-10T23:29:44.952Z,100122.74
2019-05-10T23:32:14.512Z,100119.29
2019-05-10T23:34:44.120Z,100115.37
2019-05-10T23:37:13.626Z,100118.36
2019-05-10T23:39:43.130Z,100112.74
2019-05-10T23:42:12.647Z,100105.28
2019-05-10T23:44:42.125Z,100102.52
2019-05-10T23:47:11.654Z,100104.36
2019-05-10T23:49:41.127Z,100108.50
2019-05-10T23:52:10.710Z,100102.98
2019-05-10T23:54:40.193Z,100108.95
2019-05-10T23:57:09.693Z,100103.44
2019-05-10T23:59:39.197Z,100102.84
